createdAt,value
2019-04-07T00:01:53.242Z,87.33
2019-04-07T00:04:21.611Z,94.40
2019-04-07T00:06:49.742Z,89.60
2019-04-07T00:09:17.949Z,94.43
2019-04-07T00:11:46.146Z,92.80
2019-04-07T00:14:14.355Z,96.47
2019-04-07T00:16:42.693Z,92.90
2019-04-07T00:19:11.135Z,90.53
2019-04-07T00:21:39.617Z,91.00
2019-04-07T00:24:07.798Z,91.93
2019-04-07T00:26:36.006Z,93.80
2019-04-07T00:29:04.767Z,87.73
2019-04-07T00:31:32.983Z,93.63
2019-04-07T00:34:01.611Z,90.60
2019-04-07T00:36:30.024Z,89.73
2019-04-07T00:38:58.222Z,94.63
2019-04-07T00:41:26.463Z,96.97
2019-04-07T00:43:54.914Z,93.87
2019-04-07T00:46:23.373Z,97.77
2019-04-07T00:48:51.532Z,105.60
2019-04-07T00:51:20.579Z,92.90
2019-04-07T00:53:48.822Z,99.03
2019-04-07T00:56:17.016Z,99.30
2019-04-07T00:58:45.678Z,93.97
2019-04-07T01:01:15.466Z,97.53
2019-04-07T01:03:43.689Z,99.67
2019-04-07T01:06:12.926Z,103.43
2019-04-07T01:08:41.555Z,97.87
2019-04-07T01:11:09.842Z,100.13
2019-04-07T01:13:38.557Z,93.73
2019-04-07T01:16:06.728Z,103.63
2019-04-07T01:18:35.571Z,99.30
2019-04-07T01:21:03.859Z,99.57
2019-04-07T01:23:32.527Z,104.17
2019-04-07T01:26:00.960Z,111.33
2019-04-07T01:28:29.512Z,104.57
2019-04-07T01:30:59.030Z,111.47
2019-04-07T01:33:27.751Z,105.93
2019-04-07T01:35:56.434Z,116.70
2019-04-07T01:38:24.676Z,104.50
2019-04-07T01:40:59.975Z,104.63
2019-04-07T01:43:38.449Z,107.77
2019-04-07T01:46:11.088Z,105.33
2019-04-07T01:48:43.641Z,102.43
2019-04-07T01:51:13.541Z,109.10
2019-04-07T01:53:48.866Z,99.07
2019-04-07T01:56:27.305Z,104.67
2019-04-07T01:59:05.623Z,104.23
2019-04-07T02:01:41.722Z,104.37
2019-04-07T02:04:28.074Z,96.73
2019-04-07T02:07:16.228Z,99.97
2019-04-07T02:09:46.851Z,107.13
2019-04-07T02:12:22.431Z,111.13
2019-04-07T02:14:58.901Z,106.50
2019-04-07T02:17:31.763Z,103.30
2019-04-07T02:20:07.826Z,105.00
2019-04-07T02:22:38.607Z,106.10
2019-04-07T02:25:24.054Z,103.93
2019-04-07T02:27:56.899Z,108.47
2019-04-07T02:30:44.836Z,104.70
2019-04-07T02:33:24.365Z,99.43
2019-04-07T02:36:21.390Z,103.33
2019-04-07T02:38:44.128Z,100.13
2019-04-07T02:41:19.941Z,99.73
2019-04-07T02:44:06.854Z,99.70
2019-04-07T02:46:38.058Z,100.00
2019-04-07T02:49:10.910Z,105.47
2019-04-07T02:51:40.724Z,97.80
2019-04-07T02:54:10.571Z,93.43
2019-04-07T02:56:49.471Z,102.40
2019-04-07T02:59:29.204Z,102.57
2019-04-07T03:02:15.363Z,102.00
2019-04-07T03:04:48.104Z,100.13
2019-04-07T03:07:17.956Z,97.23
2019-04-07T03:10:00.405Z,95.77
2019-04-07T03:12:46.695Z,93.63
2019-04-07T03:15:25.386Z,97.47
2019-04-07T03:17:57.921Z,111.43
2019-04-07T03:20:43.439Z,96.83
2019-04-07T03:23:22.268Z,96.27
2019-04-07T03:25:54.960Z,94.67
2019-04-07T03:28:30.673Z,95.67
2019-04-07T03:31:21.280Z,92.30
2019-04-07T03:33:51.910Z,94.20
2019-04-07T03:36:25.144Z,103.40
2019-04-07T03:38:56.125Z,92.50
2019-04-07T03:41:31.888Z,94.13
2019-04-07T03:44:01.818Z,91.53
2019-04-07T03:46:34.677Z,86.53
2019-04-07T03:49:04.565Z,99.27
2019-04-07T03:51:43.939Z,92.07
2019-04-07T03:54:25.633Z,88.20
2019-04-07T03:57:14.971Z,89.33
2019-04-07T03:59:57.765Z,87.70
2019-04-07T04:02:34.409Z,90.73
2019-04-07T04:05:05.317Z,88.47
2019-04-07T04:07:41.833Z,88.10
2019-04-07T04:10:14.484Z,94.70
2019-04-07T04:12:44.309Z,88.03
2019-04-07T04:15:23.161Z,88.97
2019-04-07T04:17:51.400Z,90.87
2019-04-07T04:20:19.776Z,81.07
2019-04-07T04:22:48.571Z,84.33
2019-04-07T04:25:17.189Z,74.00
2019-04-07T04:27:45.503Z,76.60
2019-04-07T04:30:13.718Z,86.60
2019-04-07T04:32:41.961Z,78.80
2019-04-07T04:35:10.772Z,90.80
2019-04-07T04:37:44.236Z,85.83
2019-04-07T04:40:09.347Z,86.70
2019-04-07T04:42:37.701Z,88.57
2019-04-07T04:45:08.066Z,83.37
2019-04-07T04:47:37.456Z,76.50
2019-04-07T04:50:08.276Z,84.73
2019-04-07T04:52:36.780Z,82.17
2019-04-07T04:55:05.428Z,93.57
2019-04-07T04:57:33.996Z,87.03
2019-04-07T05:00:02.434Z,87.53
2019-04-07T05:02:30.611Z,95.03
2019-04-07T05:04:59.372Z,86.40
2019-04-07T05:07:27.601Z,95.07
2019-04-07T05:09:56.763Z,88.53
2019-04-07T05:12:25.219Z,95.23
2019-04-07T05:14:53.996Z,92.93
2019-04-07T05:17:22.206Z,98.13
2019-04-07T05:19:50.973Z,103.27
2019-04-07T05:22:19.218Z,97.90
2019-04-07T05:24:47.594Z,99.20
2019-04-07T05:27:16.448Z,95.73
2019-04-07T05:29:44.756Z,116.67
2019-04-07T05:32:12.916Z,103.33
2019-04-07T05:34:41.267Z,96.00
2019-04-07T05:37:09.889Z,94.70
2019-04-07T05:39:38.397Z,95.93
2019-04-07T05:42:07.037Z,95.67
2019-04-07T05:44:35.600Z,100.30
2019-04-07T05:47:03.842Z,96.63
2019-04-07T05:49:32.527Z,83.17
2019-04-07T05:52:04.039Z,90.57
2019-04-07T05:54:30.664Z,80.33
2019-04-07T05:57:01.350Z,79.77
2019-04-07T05:59:28.832Z,86.23
2019-04-07T06:02:00.701Z,101.37
2019-04-07T06:04:27.114Z,105.50
2019-04-07T06:06:56.382Z,93.77
2019-04-07T06:09:25.131Z,83.30
2019-04-07T06:11:53.305Z,79.73
2019-04-07T06:14:21.498Z,75.60
2019-04-07T06:16:53.595Z,85.83
2019-04-07T06:19:20.321Z,84.77
2019-04-07T06:21:48.900Z,85.80
2019-04-07T06:24:18.398Z,100.57
2019-04-07T06:26:50.003Z,107.67
2019-04-07T06:29:18.287Z,108.67
2019-04-07T06:31:47.103Z,104.83
2019-04-07T06:34:16.185Z,111.93
2019-04-07T06:36:44.971Z,115.67
2019-04-07T06:39:13.534Z,108.50
2019-04-07T06:41:43.303Z,93.53
2019-04-07T06:44:15.809Z,118.50
2019-04-07T06:46:43.452Z,106.70
2019-04-07T06:49:15.933Z,106.63
2019-04-07T06:52:04.175Z,112.13
2019-04-07T06:54:42.114Z,109.13
2019-04-07T06:57:14.832Z,108.67
2019-04-07T07:00:02.326Z,110.37
2019-04-07T07:02:47.823Z,109.53
2019-04-07T07:05:17.886Z,105.23
2019-04-07T07:08:03.678Z,103.17
2019-04-07T07:10:37.797Z,96.73
2019-04-07T07:13:11.567Z,97.03
2019-04-07T07:15:42.894Z,96.13
2019-04-07T07:18:21.308Z,94.70
2019-04-07T07:20:51.529Z,99.00
2019-04-07T07:23:31.087Z,92.33
2019-04-07T07:26:02.929Z,98.13
2019-04-07T07:28:29.168Z,93.00
2019-04-07T07:30:57.369Z,98.07
2019-04-07T07:33:25.569Z,95.43
2019-04-07T07:35:53.787Z,101.60
2019-04-07T07:38:22.463Z,90.63
2019-04-07T07:40:51.548Z,93.13
2019-04-07T07:43:19.872Z,89.03
2019-04-07T07:45:48.576Z,88.77
2019-04-07T07:48:17.486Z,86.73
2019-04-07T07:50:45.818Z,93.70
2019-04-07T07:53:14.093Z,90.17
2019-04-07T07:55:42.255Z,82.13
2019-04-07T07:58:10.576Z,80.43
2019-04-07T08:00:41.560Z,77.47
2019-04-07T08:03:08.957Z,82.40
2019-04-07T08:05:37.617Z,80.77
2019-04-07T08:08:05.918Z,69.47
2019-04-07T08:10:34.295Z,69.10
2019-04-07T08:13:07.475Z,74.73
2019-04-07T08:15:33.657Z,71.50
2019-04-07T08:18:06.458Z,66.00
2019-04-07T08:20:32.666Z,72.07
2019-04-07T08:23:00.874Z,81.37
2019-04-07T08:25:29.203Z,72.07
2019-04-07T08:27:58.145Z,74.97
2019-04-07T08:30:27.122Z,71.17
2019-04-07T08:32:58.583Z,71.07
2019-04-07T08:35:25.289Z,76.37
2019-04-07T08:37:53.505Z,70.60
2019-04-07T08:40:21.739Z,70.33
2019-04-07T08:42:50.794Z,59.30
2019-04-07T08:45:19.640Z,72.07
2019-04-07T08:47:49.602Z,60.73
2019-04-07T08:50:20.803Z,58.10
2019-04-07T08:52:48.311Z,67.47
2019-04-07T08:55:19.941Z,64.83
2019-04-07T08:57:46.913Z,71.00
2019-04-07T09:00:17.461Z,61.67
2019-04-07T09:02:50.373Z,65.47
2019-04-07T09:05:20.632Z,71.43
2019-04-07T09:07:47.142Z,67.50
2019-04-07T09:10:19.483Z,70.60
2019-04-07T09:12:46.934Z,53.30
2019-04-07T09:15:16.792Z,50.80
2019-04-07T09:17:47.721Z,59.97
2019-04-07T09:20:26.991Z,54.70
2019-04-07T09:22:57.990Z,43.23
2019-04-07T09:25:40.032Z,45.40
2019-04-07T09:28:08.736Z,54.93
2019-04-07T09:30:48.288Z,51.90
2019-04-07T09:33:18.164Z,47.77
2019-04-07T09:35:56.725Z,46.83
2019-04-07T09:38:33.750Z,44.73
2019-04-07T09:41:09.558Z,47.07
2019-04-07T09:43:55.195Z,46.70
2019-04-07T09:46:41.643Z,41.13
2019-04-07T09:49:24.524Z,41.90
2019-04-07T09:52:00.976Z,43.67
2019-04-07T09:54:39.846Z,44.20
2019-04-07T09:57:15.690Z,51.23
2019-04-07T09:59:55.791Z,48.80
2019-04-07T10:02:31.887Z,49.33
2019-04-07T10:05:00.791Z,47.13
2019-04-07T10:07:46.876Z,43.90
2019-04-07T10:10:17.163Z,48.80
2019-04-07T10:12:54.303Z,43.83
2019-04-07T10:15:40.269Z,50.77
2019-04-07T10:18:26.082Z,49.77
2019-04-07T10:21:04.386Z,47.00
2019-04-07T10:23:48.739Z,51.73
2019-04-07T10:26:33.763Z,48.50
2019-04-07T10:29:19.796Z,52.10
2019-04-07T10:31:58.922Z,49.80
2019-04-07T10:34:31.969Z,44.23
2019-04-07T10:37:17.741Z,48.57
2019-04-07T10:40:03.128Z,51.73
2019-04-07T10:42:44.854Z,54.13
2019-04-07T10:45:17.500Z,47.98
2019-04-07T10:47:47.326Z,53.02
2019-04-07T10:50:23.175Z,54.30
2019-04-07T10:53:08.252Z,45.93
2019-04-07T10:55:44.152Z,53.20
2019-04-07T10:58:16.913Z,50.20
2019-04-07T11:00:55.240Z,44.90
2019-04-07T11:03:41.394Z,56.37
2019-04-07T11:06:29.474Z,45.30
2019-04-07T11:09:08.001Z,48.17
2019-04-07T11:11:43.833Z,51.43
2019-04-07T11:14:22.934Z,49.20
2019-04-07T11:16:52.777Z,51.23
2019-04-07T11:19:40.993Z,53.70
2019-04-07T11:22:16.606Z,52.75
2019-04-07T11:25:02.351Z,56.57
2019-04-07T11:27:38.169Z,62.13
2019-04-07T11:30:12.079Z,66.87
2019-04-07T11:32:54.329Z,61.48
2019-04-07T11:35:26.765Z,65.15
2019-04-07T11:37:55.956Z,63.52
2019-04-07T11:40:41.951Z,66.92
2019-04-07T11:43:04.361Z,66.35
2019-04-07T11:45:56.075Z,62.90
2019-04-07T11:48:24.166Z,57.15
2019-04-07T11:50:54.249Z,56.37
2019-04-07T11:53:30.781Z,58.20
2019-04-07T11:56:13.265Z,52.95
2019-04-07T11:58:45.877Z,60.80
2019-04-07T12:01:16.666Z,58.02
2019-04-07T12:03:46.524Z,56.28
2019-04-07T12:06:18.053Z,52.00
2019-04-07T12:09:04.887Z,53.87
2019-04-07T12:11:34.733Z,50.10
2019-04-07T12:14:07.424Z,53.93
2019-04-07T12:16:55.310Z,56.83
2019-04-07T12:19:32.086Z,58.78
2019-04-07T12:22:10.395Z,45.88
2019-04-07T12:24:42.207Z,55.70
2019-04-07T12:27:15.148Z,57.23
2019-04-07T12:30:01.124Z,59.77
2019-04-07T12:32:31.365Z,57.10
2019-04-07T12:35:01.188Z,57.90
2019-04-07T12:37:31.759Z,65.97
2019-04-07T12:40:20.722Z,62.67
2019-04-07T12:43:04.642Z,61.73
2019-04-07T12:45:46.770Z,56.48
2019-04-07T12:48:25.871Z,58.53
2019-04-07T12:51:13.644Z,60.88
2019-04-07T12:53:46.155Z,54.77
2019-04-07T12:56:16.891Z,54.05
2019-04-07T12:58:55.992Z,51.08
2019-04-07T13:01:25.840Z,57.05
2019-04-07T13:03:55.887Z,60.13
2019-04-07T13:06:31.993Z,50.65
2019-04-07T13:09:18.244Z,54.55
2019-04-07T13:12:04.274Z,54.90
2019-04-07T13:14:38.577Z,47.70
2019-04-07T13:17:17.901Z,45.90
2019-04-07T13:19:51.365Z,51.83
2019-04-07T13:22:33.488Z,44.18
2019-04-07T13:25:20.093Z,52.70
2019-04-07T13:27:57.811Z,44.90
2019-04-07T13:30:42.286Z,47.88
2019-04-07T13:33:29.555Z,46.80
2019-04-07T13:35:59.642Z,45.63
2019-04-07T13:38:29.436Z,57.70
2019-04-07T13:41:05.414Z,50.28
2019-04-07T13:43:53.488Z,50.63
2019-04-07T13:46:40.080Z,46.88
2019-04-07T13:49:16.103Z,42.83
2019-04-07T13:51:49.362Z,43.28
2019-04-07T13:54:31.231Z,50.92
2019-04-07T13:57:00.350Z,49.05
2019-04-07T13:59:30.202Z,45.35
2019-04-07T14:02:03.129Z,48.78
2019-04-07T14:04:42.405Z,44.23
2019-04-07T14:07:17.966Z,54.03
2019-04-07T14:09:49.563Z,51.20
2019-04-07T14:12:25.966Z,50.88
2019-04-07T14:15:02.841Z,54.53
2019-04-07T14:17:44.967Z,46.18
2019-04-07T14:20:22.634Z,48.93
2019-04-07T14:22:53.105Z,47.87
2019-04-07T14:25:23.467Z,50.95
2019-04-07T14:28:12.180Z,53.40
2019-04-07T14:30:45.659Z,51.68
2019-04-07T14:33:15.522Z,51.13
2019-04-07T14:35:45.404Z,47.85
2019-04-07T14:38:21.260Z,53.13
2019-04-07T14:41:07.485Z,46.88
2019-04-07T14:43:49.735Z,54.33
2019-04-07T14:46:21.138Z,46.37
2019-04-07T14:48:54.416Z,75.45
2019-04-07T14:51:28.372Z,45.15
2019-04-07T14:54:01.121Z,47.43
2019-04-07T14:56:40.824Z,46.85
2019-04-07T14:59:11.746Z,38.15
2019-04-07T15:01:56.040Z,49.63
2019-04-07T15:04:32.675Z,43.48
2019-04-07T15:07:18.240Z,39.60
2019-04-07T15:10:05.071Z,48.30
2019-04-07T15:12:46.874Z,39.65
2019-04-07T15:15:15.950Z,36.23
2019-04-07T15:17:45.601Z,40.92
2019-04-07T15:20:15.679Z,43.95
2019-04-07T15:22:46.848Z,53.73
2019-04-07T15:25:14.046Z,45.88
2019-04-07T15:27:42.525Z,43.33
2019-04-07T15:30:15.338Z,46.15
2019-04-07T15:32:41.626Z,47.43
2019-04-07T15:35:13.220Z,45.57
2019-04-07T15:37:41.034Z,52.93
2019-04-07T15:40:10.899Z,50.08
2019-04-07T15:42:44.114Z,48.90
2019-04-07T15:45:12.040Z,50.03
2019-04-07T15:47:40.439Z,42.03
2019-04-07T15:50:09.549Z,49.88
2019-04-07T15:52:42.175Z,60.05
2019-04-07T15:55:08.615Z,56.50
2019-04-07T15:57:37.303Z,50.65
2019-04-07T16:00:08.836Z,49.98
2019-04-07T16:02:40.933Z,48.95
2019-04-07T16:05:07.072Z,48.80
2019-04-07T16:07:35.301Z,60.83
2019-04-07T16:10:05.881Z,50.17
2019-04-07T16:12:42.872Z,53.35
2019-04-07T16:15:05.338Z,52.23
2019-04-07T16:17:34.811Z,54.08
2019-04-07T16:20:04.034Z,56.90
2019-04-07T16:22:32.251Z,49.38
2019-04-07T16:25:01.827Z,48.42
2019-04-07T16:27:30.452Z,56.92
2019-04-07T16:29:58.654Z,46.40
2019-04-07T16:32:29.186Z,46.45
2019-04-07T16:34:57.322Z,57.08
2019-04-07T16:37:29.102Z,57.10
2019-04-07T16:39:55.630Z,47.30
2019-04-07T16:42:27.587Z,57.75
2019-04-07T16:44:56.177Z,55.38
2019-04-07T16:47:26.282Z,50.35
2019-04-07T16:49:54.731Z,50.78
2019-04-07T16:52:23.158Z,53.58
2019-04-07T16:54:51.669Z,51.40
2019-04-07T16:57:20.507Z,50.92
2019-04-07T16:59:48.697Z,48.15
2019-04-07T17:02:18.274Z,48.73
2019-04-07T17:04:47.093Z,54.33
2019-04-07T17:07:17.094Z,50.63
2019-04-07T17:09:45.596Z,46.95
2019-04-07T17:12:14.945Z,50.05
2019-04-07T17:14:43.573Z,46.77
2019-04-07T17:17:15.686Z,45.90
2019-04-07T17:19:42.077Z,53.40
2019-04-07T17:22:14.001Z,50.05
2019-04-07T17:24:40.985Z,47.90
2019-04-07T17:27:11.398Z,54.90
2019-04-07T17:29:39.529Z,58.90
2019-04-07T17:32:08.916Z,49.30
2019-04-07T17:34:37.983Z,57.17
2019-04-07T17:37:07.281Z,54.00
2019-04-07T17:39:46.161Z,56.50
2019-04-07T17:42:15.643Z,55.90
2019-04-07T17:44:47.830Z,59.13
2019-04-07T17:47:29.390Z,58.80
2019-04-07T17:50:14.717Z,62.30
2019-04-07T17:52:48.237Z,57.60
2019-04-07T17:55:34.207Z,52.93
2019-04-07T17:58:20.110Z,59.97
2019-04-07T18:01:06.302Z,53.73
2019-04-07T18:03:41.829Z,65.70
2019-04-07T18:06:15.665Z,65.90
2019-04-07T18:08:51.820Z,56.28
2019-04-07T18:11:23.162Z,55.27
2019-04-07T18:13:56.682Z,61.57
2019-04-07T18:16:34.178Z,59.37
2019-04-07T18:19:07.184Z,63.07
2019-04-07T18:21:53.890Z,62.53
2019-04-07T18:24:39.236Z,67.67
2019-04-07T18:27:11.857Z,64.43
2019-04-07T18:29:43.315Z,69.40
2019-04-07T18:32:21.903Z,67.20
2019-04-07T18:34:52.792Z,62.90
2019-04-07T18:37:40.131Z,61.53
2019-04-07T18:40:27.446Z,65.50
2019-04-07T18:43:00.999Z,66.63
2019-04-07T18:45:33.345Z,83.90
2019-04-07T18:48:03.471Z,66.50
2019-04-07T18:50:36.936Z,71.10
2019-04-07T18:53:20.780Z,65.17
2019-04-07T18:55:50.944Z,67.37
2019-04-07T18:58:20.948Z,70.70
2019-04-07T19:00:57.468Z,67.83
2019-04-07T19:03:30.091Z,74.03
2019-04-07T19:06:16.561Z,74.10
2019-04-07T19:09:01.871Z,75.93
2019-04-07T19:11:48.701Z,75.13
2019-04-07T19:14:38.018Z,70.27
2019-04-07T19:17:05.384Z,73.00
2019-04-07T19:19:46.794Z,73.20
2019-04-07T19:22:34.817Z,77.60
2019-04-07T19:25:15.740Z,73.57
2019-04-07T19:28:01.022Z,71.57
2019-04-07T19:30:48.616Z,74.07
2019-04-07T19:33:17.273Z,75.50
2019-04-07T19:35:49.952Z,75.77
2019-04-07T19:38:37.333Z,77.47
2019-04-07T19:41:06.850Z,77.77
2019-04-07T19:43:37.186Z,82.90
2019-04-07T19:46:26.433Z,84.17
2019-04-07T19:48:58.998Z,72.23
2019-04-07T19:51:32.152Z,74.63
2019-04-07T19:54:20.155Z,79.80
2019-04-07T19:56:55.447Z,91.90
2019-04-07T19:59:42.662Z,78.73
2019-04-07T20:02:12.279Z,71.07
2019-04-07T20:04:53.532Z,77.27
2019-04-07T20:07:31.583Z,78.07
2019-04-07T20:10:23.721Z,77.87
2019-04-07T20:12:51.994Z,78.77
2019-04-07T20:15:29.737Z,80.60
2019-04-07T20:18:17.461Z,76.17
2019-04-07T20:20:48.323Z,79.63
2019-04-07T20:23:34.519Z,80.97
2019-04-07T20:26:22.293Z,80.37
2019-04-07T20:29:07.041Z,79.77
2019-04-07T20:31:51.967Z,73.27
2019-04-07T20:34:27.791Z,83.30
2019-04-07T20:37:07.223Z,80.37
2019-04-07T20:39:37.505Z,79.97
2019-04-07T20:42:17.364Z,78.10
2019-04-07T20:45:02.487Z,80.90
2019-04-07T20:47:38.156Z,80.07
2019-04-07T20:50:20.190Z,84.33
2019-04-07T20:52:50.402Z,81.50
2019-04-07T20:55:29.145Z,90.17
2019-04-07T20:58:22.087Z,76.03
2019-04-07T21:01:04.926Z,73.60
2019-04-07T21:03:37.573Z,75.87
2019-04-07T21:06:19.903Z,77.33
2019-04-07T21:08:49.898Z,76.80
2019-04-07T21:11:25.978Z,74.70
2019-04-07T21:14:15.485Z,77.07
2019-04-07T21:16:57.861Z,81.87
2019-04-07T21:19:38.847Z,74.97
2019-04-07T21:22:08.822Z,75.30
2019-04-07T21:24:38.985Z,74.90
2019-04-07T21:27:08.800Z,74.20
2019-04-07T21:29:45.925Z,76.00
2019-04-07T21:32:23.236Z,77.07
2019-04-07T21:35:01.380Z,78.17
2019-04-07T21:37:40.820Z,76.87
2019-04-07T21:40:20.979Z,80.60
2019-04-07T21:42:56.519Z,88.03
2019-04-07T21:45:35.403Z,81.33
2019-04-07T21:48:01.381Z,86.60
2019-04-07T21:50:31.698Z,82.80
2019-04-07T21:53:07.399Z,91.53
2019-04-07T21:55:42.075Z,81.67
2019-04-07T21:58:12.397Z,82.50
2019-04-07T22:00:51.142Z,82.53
2019-04-07T22:03:23.496Z,87.50
2019-04-07T22:05:59.391Z,87.33
2019-04-07T22:08:47.784Z,85.63
2019-04-07T22:11:16.274Z,80.37
2019-04-07T22:13:44.920Z,83.03
2019-04-07T22:16:13.129Z,83.90
2019-04-07T22:18:41.820Z,78.63
2019-04-07T22:21:10.206Z,82.17
2019-04-07T22:23:38.676Z,82.90
2019-04-07T22:26:12.721Z,86.07
2019-04-07T22:28:37.311Z,80.13
2019-04-07T22:31:05.661Z,89.53
2019-04-07T22:33:34.945Z,87.47
2019-04-07T22:36:03.879Z,82.37
2019-04-07T22:38:32.126Z,84.87
2019-04-07T22:41:01.324Z,82.23
2019-04-07T22:43:29.593Z,77.23
2019-04-07T22:46:07.741Z,76.13
2019-04-07T22:48:29.354Z,70.80
2019-04-07T22:50:58.733Z,78.47
2019-04-07T22:53:29.591Z,79.97
2019-04-07T22:55:57.125Z,84.70
2019-04-07T22:58:25.585Z,79.97
2019-04-07T23:00:54.340Z,79.47
2019-04-07T23:03:22.504Z,82.43
2019-04-07T23:05:51.351Z,88.70
2019-04-07T23:08:19.532Z,85.10
2019-04-07T23:10:48.018Z,81.40
2019-04-07T23:13:16.626Z,85.33
2019-04-07T23:15:46.445Z,83.33
2019-04-07T23:18:15.809Z,88.37
2019-04-07T23:20:44.490Z,94.57
2019-04-07T23:23:12.980Z,91.93
2019-04-07T23:25:42.041Z,82.00
2019-04-07T23:28:10.452Z,83.73
2019-04-07T23:30:39.714Z,79.17
2019-04-07T23:33:08.373Z,76.47
2019-04-07T23:35:37.083Z,74.27
2019-04-07T23:38:05.780Z,72.13
2019-04-07T23:40:34.384Z,75.77
2019-04-07T23:43:02.670Z,79.53
2019-04-07T23:45:31.589Z,73.67
2019-04-07T23:47:59.976Z,79.70
2019-04-07T23:50:29.252Z,82.83
2019-04-07T23:53:00.146Z,82.17
2019-04-07T23:55:28.405Z,86.40
2019-04-07T23:57:56.825Z,91.60
